Airport Name : Turkmenbashi

Other Name : Turkmenbashi

ICAO : UTAK

IATA : KRW

FAA :

Latitude : 40.063333

Longitude : 53.007222

Country : Turkmenistan

Local Date and Time : 20 May 2024 11:34

 

TAF (Terminal Aerodrome Forecast)

TAF UTAK 200430Z 2006/2106 18012KT 9999 SCT040 BKN100 TEMPO 2006/2008 16014KT BECMG 2009/2010 25016KT BECMG 2011/2012 34016KT

 

METAR (METeorological Aerodrome Report)

UTAK 200600Z VRB04KT CAVOK 22/M00 Q1018 R16R/CLRD70 NOSIG

UTAK 200500Z 10006KT CAVOK 20/01 Q1018 R16R/CLRD70 NOSIG

UTAK 200300Z 07008KT CAVOK 16/01 Q1017 R16R/CLRD70 NOSIG